sensor_id;sensor_type;location;lat;lon;timestamp;pressure;altitude;pressure_sealevel;temperature;humidity
74893;BME280;63446;56.272;43.922;2024-01-07T00:02:14;100738.38;;;-15.96;54.54
74893;BME280;63446;56.272;43.922;2024-01-07T00:04:40;100744.88;;;-15.92;54.49
74893;BME280;63446;56.272;43.922;2024-01-07T00:07:06;100743.81;;;-16.02;54.54
74893;BME280;63446;56.272;43.922;2024-01-07T00:09:32;100763.81;;;-15.97;54.62
74893;BME280;63446;56.272;43.922;2024-01-07T00:11:57;100762.06;;;-15.97;54.57
74893;BME280;63446;56.272;43.922;2024-01-07T00:14:24;100755.47;;;-15.99;54.59
74893;BME280;63446;56.272;43.922;2024-01-07T00:16:50;100761.78;;;-16.07;54.59
74893;BME280;63446;56.272;43.922;2024-01-07T00:19:16;100770.66;;;-15.99;54.67
74893;BME280;63446;56.272;43.922;2024-01-07T00:21:42;100768.13;;;-15.99;54.56
74893;BME280;63446;56.272;43.922;2024-01-07T00:24:08;100771.28;;;-15.96;54.63
74893;BME280;63446;56.272;43.922;2024-01-07T00:26:34;100758.91;;;-16.01;54.71
74893;BME280;63446;56.272;43.922;2024-01-07T00:28:59;100773.56;;;-15.91;54.72
74893;BME280;63446;56.272;43.922;2024-01-07T00:31:26;100757.72;;;-15.95;54.57
74893;BME280;63446;56.272;43.922;2024-01-07T00:33:52;100775.66;;;-15.84;54.73
74893;BME280;63446;56.272;43.922;2024-01-07T00:36:18;100761.34;;;-15.85;54.70
74893;BME280;63446;56.272;43.922;2024-01-07T00:38:43;100773.50;;;-15.75;54.78
74893;BME280;63446;56.272;43.922;2024-01-07T00:41:09;100774.13;;;-15.72;54.79
74893;BME280;63446;56.272;43.922;2024-01-07T00:43:35;100775.50;;;-15.66;54.77
74893;BME280;63446;56.272;43.922;2024-01-07T00:46:01;100781.97;;;-15.62;54.68
74893;BME280;63446;56.272;43.922;2024-01-07T00:48:28;100789.41;;;-15.59;54.73
74893;BME280;63446;56.272;43.922;2024-01-07T00:50:54;100778.25;;;-15.57;54.72
74893;BME280;63446;56.272;43.922;2024-01-07T00:53:20;100780.72;;;-15.55;54.70
74893;BME280;63446;56.272;43.922;2024-01-07T00:55:46;100786.31;;;-15.50;54.80
74893;BME280;63446;56.272;43.922;2024-01-07T00:58:12;100794.66;;;-15.48;54.65
74893;BME280;63446;56.272;43.922;2024-01-07T01:00:38;100782.78;;;-15.47;54.65
74893;BME280;63446;56.272;43.922;2024-01-07T01:03:04;100791.03;;;-15.44;54.55
74893;BME280;63446;56.272;43.922;2024-01-07T01:05:30;100784.59;;;-15.49;54.57
74893;BME280;63446;56.272;43.922;2024-01-07T01:07:56;100794.38;;;-15.43;54.60
74893;BME280;63446;56.272;43.922;2024-01-07T01:10:22;100789.59;;;-15.48;54.69
74893;BME280;63446;56.272;43.922;2024-01-07T01:12:48;100796.72;;;-15.40;54.70
74893;BME280;63446;56.272;43.922;2024-01-07T01:15:14;100808.38;;;-15.38;54.72
74893;BME280;63446;56.272;43.922;2024-01-07T01:17:42;100804.13;;;-15.37;54.71
74893;BME280;63446;56.272;43.922;2024-01-07T01:20:08;100799.06;;;-15.37;54.60
74893;BME280;63446;56.272;43.922;2024-01-07T01:22:35;100806.59;;;-15.36;54.63
74893;BME280;63446;56.272;43.922;2024-01-07T01:25:01;100813.44;;;-15.38;54.60
74893;BME280;63446;56.272;43.922;2024-01-07T01:27:29;100814.25;;;-15.37;54.83
74893;BME280;63446;56.272;43.922;2024-01-07T01:29:55;100808.50;;;-15.39;54.61
74893;BME280;63446;56.272;43.922;2024-01-07T01:32:21;100821.16;;;-15.39;54.76
74893;BME280;63446;56.272;43.922;2024-01-07T01:34:47;100804.84;;;-15.49;54.57
74893;BME280;63446;56.272;43.922;2024-01-07T01:37:13;100819.78;;;-15.45;54.51
74893;BME280;63446;56.272;43.922;2024-01-07T01:39:40;100823.41;;;-15.49;54.51
74893;BME280;63446;56.272;43.922;2024-01-07T01:42:06;100826.94;;;-15.52;54.59
74893;BME280;63446;56.272;43.922;2024-01-07T01:44:33;100823.69;;;-15.54;54.66
74893;BME280;63446;56.272;43.922;2024-01-07T01:47:00;100825.56;;;-15.57;54.54
74893;BME280;63446;56.272;43.922;2024-01-07T01:49:27;100831.56;;;-15.58;54.59
74893;BME280;63446;56.272;43.922;2024-01-07T01:51:53;100817.28;;;-15.73;54.44
74893;BME280;63446;56.272;43.922;2024-01-07T01:54:20;100817.44;;;-15.77;54.47
74893;BME280;63446;56.272;43.922;2024-01-07T01:56:47;100833.91;;;-15.69;54.44
74893;BME280;63446;56.272;43.922;2024-01-07T01:59:15;100837.38;;;-15.70;54.42
74893;BME280;63446;56.272;43.922;2024-01-07T02:01:41;100840.81;;;-15.71;54.58
74893;BME280;63446;56.272;43.922;2024-01-07T02:04:08;100837.63;;;-15.75;54.45
74893;BME280;63446;56.272;43.922;2024-01-07T02:06:35;100848.00;;;-15.80;54.53
74893;BME280;63446;56.272;43.922;2024-01-07T02:09:02;100838.50;;;-15.90;54.27
74893;BME280;63446;56.272;43.922;2024-01-07T02:11:28;100851.81;;;-15.87;54.41
74893;BME280;63446;56.272;43.922;2024-01-07T02:13:55;100860.50;;;-15.91;54.24
74893;BME280;63446;56.272;43.922;2024-01-07T02:16:23;100848.16;;;-15.97;54.32
74893;BME280;63446;56.272;43.922;2024-01-07T02:18:50;100853.50;;;-16.02;54.26
74893;BME280;63446;56.272;43.922;2024-01-07T02:21:16;100866.31;;;-16.05;54.31
74893;BME280;63446;56.272;43.922;2024-01-07T02:23:43;100863.94;;;-16.08;54.30
74893;BME280;63446;56.272;43.922;2024-01-07T02:26:08;100870.00;;;-16.10;54.35
74893;BME280;63446;56.272;43.922;2024-01-07T02:28:35;100863.00;;;-16.21;54.28
74893;BME280;63446;56.272;43.922;2024-01-07T02:31:01;100871.25;;;-16.17;54.31
74893;BME280;63446;56.272;43.922;2024-01-07T02:33:27;100868.31;;;-16.26;54.29
74893;BME280;63446;56.272;43.922;2024-01-07T02:35:53;100878.09;;;-16.19;54.31
74893;BME280;63446;56.272;43.922;2024-01-07T02:38:19;100874.84;;;-16.21;54.27
74893;BME280;63446;56.272;43.922;2024-01-07T02:40:45;100877.44;;;-16.23;54.13
74893;BME280;63446;56.272;43.922;2024-01-07T02:43:11;100874.28;;;-16.27;54.25
74893;BME280;63446;56.272;43.922;2024-01-07T02:45:37;100878.63;;;-16.29;54.09
74893;BME280;63446;56.272;43.922;2024-01-07T02:48:03;100892.34;;;-16.33;54.03
74893;BME280;63446;56.272;43.922;2024-01-07T02:50:29;100897.56;;;-16.36;53.97
74893;BME280;63446;56.272;43.922;2024-01-07T02:52:55;100886.28;;;-16.46;53.96
74893;BME280;63446;56.272;43.922;2024-01-07T02:55:21;100871.69;;;-16.57;53.95
74893;BME280;63446;56.272;43.922;2024-01-07T02:57:47;100893.47;;;-16.54;54.01
74893;BME280;63446;56.272;43.922;2024-01-07T03:00:13;100915.13;;;-16.48;54.10
74893;BME280;63446;56.272;43.922;2024-01-07T03:02:39;100904.66;;;-16.58;54.00
74893;BME280;63446;56.272;43.922;2024-01-07T03:05:05;100923.75;;;-16.53;54.05
74893;BME280;63446;56.272;43.922;2024-01-07T03:07:31;100923.69;;;-16.51;54.18
74893;BME280;63446;56.272;43.922;2024-01-07T03:09:57;100925.25;;;-16.48;54.01
74893;BME280;63446;56.272;43.922;2024-01-07T03:12:24;100925.16;;;-16.47;54.12
74893;BME280;63446;56.272;43.922;2024-01-07T03:14:50;100921.00;;;-16.48;54.19
74893;BME280;63446;56.272;43.922;2024-01-07T03:17:16;100922.63;;;-16.47;54.11
74893;BME280;63446;56.272;43.922;2024-01-07T03:19:43;100933.13;;;-16.39;54.06
74893;BME280;63446;56.272;43.922;2024-01-07T03:22:09;100927.13;;;-16.36;54.16
74893;BME280;63446;56.272;43.922;2024-01-07T03:24:35;100945.47;;;-16.33;54.10
74893;BME280;63446;56.272;43.922;2024-01-07T03:27:00;100945.47;;;-16.33;54.13
74893;BME280;63446;56.272;43.922;2024-01-07T03:29:26;100934.44;;;-16.32;53.99
74893;BME280;63446;56.272;43.922;2024-01-07T03:31:52;100943.66;;;-16.31;54.04
74893;BME280;63446;56.272;43.922;2024-01-07T03:34:19;100945.47;;;-16.33;54.00
74893;BME280;63446;56.272;43.922;2024-01-07T03:36:45;100931.53;;;-16.40;53.83
74893;BME280;63446;56.272;43.922;2024-01-07T03:39:11;100942.13;;;-16.33;53.99
74893;BME280;63446;56.272;43.922;2024-01-07T03:41:37;100943.91;;;-16.35;53.92
74893;BME280;63446;56.272;43.922;2024-01-07T03:44:03;100932.97;;;-16.36;53.90
74893;BME280;63446;56.272;43.922;2024-01-07T03:46:29;100943.25;;;-16.39;53.93
74893;BME280;63446;56.272;43.922;2024-01-07T03:48:55;100950.53;;;-16.33;53.99
74893;BME280;63446;56.272;43.922;2024-01-07T03:51:21;100937.13;;;-16.35;53.89
74893;BME280;63446;56.272;43.922;2024-01-07T03:53:47;100942.84;;;-16.31;54.05
74893;BME280;63446;56.272;43.922;2024-01-07T03:56:13;100938.94;;;-16.37;53.88
74893;BME280;63446;56.272;43.922;2024-01-07T03:58:39;100942.34;;;-16.38;53.81
74893;BME280;63446;56.272;43.922;2024-01-07T04:01:05;100952.88;;;-16.30;53.84
74893;BME280;63446;56.272;43.922;2024-01-07T04:03:31;100964.91;;;-16.33;53.79
74893;BME280;63446;56.272;43.922;2024-01-07T04:05:57;100957.72;;;-16.41;53.66
74893;BME280;63446;56.272;43.922;2024-01-07T04:08:23;100962.53;;;-16.36;53.86
74893;BME280;63446;56.272;43.922;2024-01-07T04:10:49;100960.97;;;-16.39;53.82
74893;BME280;63446;56.272;43.922;2024-01-07T04:13:15;100965.22;;;-16.39;53.75
74893;BME280;63446;56.272;43.922;2024-01-07T04:15:41;100972.91;;;-16.41;53.70
74893;BME280;63446;56.272;43.922;2024-01-07T04:18:07;100964.56;;;-16.43;53.85
74893;BME280;63446;56.272;43.922;2024-01-07T04:20:33;100970.44;;;-16.42;53.75
74893;BME280;63446;56.272;43.922;2024-01-07T04:22:59;100956.16;;;-16.43;53.72
74893;BME280;63446;56.272;43.922;2024-01-07T04:25:25;100956.97;;;-16.43;53.77
74893;BME280;63446;56.272;43.922;2024-01-07T04:27:51;100962.84;;;-16.42;53.72
74893;BME280;63446;56.272;43.922;2024-01-07T04:30:17;100970.44;;;-16.42;53.84
74893;BME280;63446;56.272;43.922;2024-01-07T04:32:43;100978.03;;;-16.42;53.82
74893;BME280;63446;56.272;43.922;2024-01-07T04:35:09;100972.97;;;-16.42;53.79
74893;BME280;63446;56.272;43.922;2024-01-07T04:37:37;100985.78;;;-16.45;53.73
74893;BME280;63446;56.272;43.922;2024-01-07T04:40:03;100991.84;;;-16.48;53.86
74893;BME280;63446;56.272;43.922;2024-01-07T04:42:31;100997.03;;;-16.51;53.69
74893;BME280;63446;56.272;43.922;2024-01-07T04:44:57;100996.38;;;-16.55;53.67
74893;BME280;63446;56.272;43.922;2024-01-07T04:47:31;100989.84;;;-16.59;53.76
74893;BME280;63446;56.272;43.922;2024-01-07T04:49:57;100990.31;;;-16.68;53.68
74893;BME280;63446;56.272;43.922;2024-01-07T04:52:24;101001.16;;;-16.66;53.77
74893;BME280;63446;56.272;43.922;2024-01-07T04:54:51;101005.56;;;-16.69;53.64
74893;BME280;63446;56.272;43.922;2024-01-07T04:57:18;101010.63;;;-16.69;53.76
74893;BME280;63446;56.272;43.922;2024-01-07T04:59:45;101011.53;;;-16.70;53.87
74893;BME280;63446;56.272;43.922;2024-01-07T05:02:11;101021.66;;;-16.70;53.77
74893;BME280;63446;56.272;43.922;2024-01-07T05:04:37;101014.97;;;-16.71;53.87
74893;BME280;63446;56.272;43.922;2024-01-07T05:07:03;101026.69;;;-16.70;53.90
74893;BME280;63446;56.272;43.922;2024-01-07T05:09:29;101031.53;;;-16.66;53.98
74893;BME280;63446;56.272;43.922;2024-01-07T05:11:55;101027.28;;;-16.65;53.94
74893;BME280;63446;56.272;43.922;2024-01-07T05:14:21;101033.91;;;-16.63;53.88
74893;BME280;63446;56.272;43.922;2024-01-07T05:16:49;101020.34;;;-16.62;53.95
74893;BME280;63446;56.272;43.922;2024-01-07T05:19:15;101027.78;;;-16.59;53.86
74893;BME280;63446;56.272;43.922;2024-01-07T05:21:41;101025.25;;;-16.59;53.81
74893;BME280;63446;56.272;43.922;2024-01-07T05:24:07;101036.94;;;-16.56;53.84
74893;BME280;63446;56.272;43.922;2024-01-07T05:26:41;101033.56;;;-16.57;53.77
74893;BME280;63446;56.272;43.922;2024-01-07T05:29:08;101031.88;;;-16.56;53.66
74893;BME280;63446;56.272;43.922;2024-01-07T05:31:34;101014.72;;;-16.67;53.65
74893;BME280;63446;56.272;43.922;2024-01-07T05:34:01;101023.03;;;-16.65;53.44
74893;BME280;63446;56.272;43.922;2024-01-07T05:36:28;101039.91;;;-16.65;53.44
74893;BME280;63446;56.272;43.922;2024-01-07T05:38:53;101060.41;;;-16.70;53.51
74893;BME280;63446;56.272;43.922;2024-01-07T05:41:20;101046.19;;;-16.72;53.43
74893;BME280;63446;56.272;43.922;2024-01-07T05:43:46;101049.88;;;-16.78;53.43
74893;BME280;63446;56.272;43.922;2024-01-07T05:46:12;101055.91;;;-16.81;53.46
74893;BME280;63446;56.272;43.922;2024-01-07T05:48:45;101067.72;;;-16.81;53.46
74893;BME280;63446;56.272;43.922;2024-01-07T05:51:12;101065.28;;;-16.83;53.49
74893;BME280;63446;56.272;43.922;2024-01-07T05:53:39;101065.28;;;-16.83;53.40
74893;BME280;63446;56.272;43.922;2024-01-07T05:56:06;101070.41;;;-16.84;53.53
74893;BME280;63446;56.272;43.922;2024-01-07T05:58:32;101054.69;;;-16.91;53.30
74893;BME280;63446;56.272;43.922;2024-01-07T06:00:58;101071.31;;;-16.85;53.50
74893;BME280;63446;56.272;43.922;2024-01-07T06:03:24;101072.88;;;-16.83;53.44
74893;BME280;63446;56.272;43.922;2024-01-07T06:05:51;101073.69;;;-16.82;53.39
74893;BME280;63446;56.272;43.922;2024-01-07T06:08:16;101088.78;;;-16.81;53.48
74893;BME280;63446;56.272;43.922;2024-01-07T06:10:43;101093.75;;;-16.79;53.42
74893;BME280;63446;56.272;43.922;2024-01-07T06:13:11;101093.75;;;-16.79;53.42
74893;BME280;63446;56.272;43.922;2024-01-07T06:15:37;101095.31;;;-16.77;53.39
74893;BME280;63446;56.272;43.922;2024-01-07T06:18:03;101096.13;;;-16.76;53.32
74893;BME280;63446;56.272;43.922;2024-01-07T06:20:29;101106.25;;;-16.76;53.31
74893;BME280;63446;56.272;43.922;2024-01-07T06:22:55;101098.16;;;-16.83;53.31
74893;BME280;63446;56.272;43.922;2024-01-07T06:25:20;101114.63;;;-16.76;53.30
74893;BME280;63446;56.272;43.922;2024-01-07T06:27:47;101114.63;;;-16.76;53.24
74893;BME280;63446;56.272;43.922;2024-01-07T06:30:13;101116.34;;;-16.76;53.35
74893;BME280;63446;56.272;43.922;2024-01-07T06:32:39;101122.16;;;-16.74;53.21
74893;BME280;63446;56.272;43.922;2024-01-07T06:35:05;101123.06;;;-16.75;53.28
74893;BME280;63446;56.272;43.922;2024-01-07T06:37:31;101117.94;;;-16.73;53.23
74893;BME280;63446;56.272;43.922;2024-01-07T06:39:58;101115.41;;;-16.73;53.23
74893;BME280;63446;56.272;43.922;2024-01-07T06:42:24;101124.53;;;-16.71;53.22
74893;BME280;63446;56.272;43.922;2024-01-07T06:44:51;101130.31;;;-16.69;53.26
74893;BME280;63446;56.272;43.922;2024-01-07T06:47:18;101134.47;;;-16.68;53.27
74893;BME280;63446;56.272;43.922;2024-01-07T06:49:44;101136.94;;;-16.66;53.06
74893;BME280;63446;56.272;43.922;2024-01-07T06:52:10;101133.59;;;-16.67;53.13
74893;BME280;63446;56.272;43.922;2024-01-07T06:54:36;101135.88;;;-16.62;53.07
74893;BME280;63446;56.272;43.922;2024-01-07T06:57:02;101142.44;;;-16.58;53.28
74893;BME280;63446;56.272;43.922;2024-01-07T06:59:28;101145.63;;;-16.55;53.16
74893;BME280;63446;56.272;43.922;2024-01-07T07:01:54;101147.22;;;-16.52;53.10
74893;BME280;63446;56.272;43.922;2024-01-07T07:04:23;101162.22;;;-16.49;53.08
74893;BME280;63446;56.272;43.922;2024-01-07T07:06:49;101143.91;;;-16.54;53.06
74893;BME280;63446;56.272;43.922;2024-01-07T07:09:16;101161.25;;;-16.46;53.26
74893;BME280;63446;56.272;43.922;2024-01-07T07:11:42;101152.84;;;-16.47;53.03
74893;BME280;63446;56.272;43.922;2024-01-07T07:14:09;101159.25;;;-16.40;53.04
74893;BME280;63446;56.272;43.922;2024-01-07T07:16:36;101162.34;;;-16.35;53.16
74893;BME280;63446;56.272;43.922;2024-01-07T07:19:01;101168.84;;;-16.29;53.12
74893;BME280;63446;56.272;43.922;2024-01-07T07:21:27;101168.59;;;-16.24;53.14
74893;BME280;63446;56.272;43.922;2024-01-07T07:23:53;101170.09;;;-16.20;53.09
74893;BME280;63446;56.272;43.922;2024-01-07T07:26:20;101178.19;;;-16.14;53.09
74893;BME280;63446;56.272;43.922;2024-01-07T07:28:46;101164.28;;;-16.22;53.10
74893;BME280;63446;56.272;43.922;2024-01-07T07:31:13;101186.28;;;-16.07;53.01
74893;BME280;63446;56.272;43.922;2024-01-07T07:33:39;101189.47;;;-16.04;53.08
74893;BME280;63446;56.272;43.922;2024-01-07T07:36:07;101194.31;;;-15.99;53.11
74893;BME280;63446;56.272;43.922;2024-01-07T07:38:33;101195.72;;;-15.93;53.00
74893;BME280;63446;56.272;43.922;2024-01-07T07:41:01;101198.91;;;-15.90;53.04
74893;BME280;63446;56.272;43.922;2024-01-07T07:43:27;101198.69;;;-15.85;53.12
74893;BME280;63446;56.272;43.922;2024-01-07T07:45:55;101199.25;;;-15.80;53.15
74893;BME280;63446;56.272;43.922;2024-01-07T07:48:21;101203.19;;;-15.74;53.07
74893;BME280;63446;56.272;43.922;2024-01-07T07:50:48;101206.41;;;-15.71;52.97
74893;BME280;63446;56.272;43.922;2024-01-07T07:53:15;101187.25;;;-15.77;52.98
74893;BME280;63446;56.272;43.922;2024-01-07T07:55:41;101203.34;;;-15.62;53.03
74893;BME280;63446;56.272;43.922;2024-01-07T07:58:08;101203.09;;;-15.57;52.98
74893;BME280;63446;56.272;43.922;2024-01-07T08:00:33;101201.16;;;-15.52;53.03
74893;BME280;63446;56.272;43.922;2024-01-07T08:02:59;101196.75;;;-15.48;53.09
74893;BME280;63446;56.272;43.922;2024-01-07T08:05:25;101204.94;;;-15.43;53.13
74893;BME280;63446;56.272;43.922;2024-01-07T08:07:51;101203.06;;;-15.40;53.00
74893;BME280;63446;56.272;43.922;2024-01-07T08:10:17;101211.38;;;-15.38;53.08
74893;BME280;63446;56.272;43.922;2024-01-07T08:12:44;101209.44;;;-15.33;53.08
74893;BME280;63446;56.272;43.922;2024-01-07T08:15:10;101206.72;;;-15.30;53.05
74893;BME280;63446;56.272;43.922;2024-01-07T08:17:36;101224.25;;;-15.25;52.91
74893;BME280;63446;56.272;43.922;2024-01-07T08:20:02;101215.72;;;-15.24;52.86
74893;BME280;63446;56.272;43.922;2024-01-07T08:22:30;101229.97;;;-15.21;52.94
74893;BME280;63446;56.272;43.922;2024-01-07T08:24:56;101220.13;;;-15.28;52.89
74893;BME280;63446;56.272;43.922;2024-01-07T08:27:23;101228.09;;;-15.18;52.96
74893;BME280;63446;56.272;43.922;2024-01-07T08:29:49;101233.97;;;-15.17;52.93
74893;BME280;63446;56.272;43.922;2024-01-07T08:32:15;101222.81;;;-15.15;52.87
74893;BME280;63446;56.272;43.922;2024-01-07T08:34:41;101223.63;;;-15.14;53.04
74893;BME280;63446;56.272;43.922;2024-01-07T08:37:07;101225.84;;;-15.08;52.98
74893;BME280;63446;56.272;43.922;2024-01-07T08:39:34;101218.50;;;-15.13;52.88
74893;BME280;63446;56.272;43.922;2024-01-07T08:42:00;101231.91;;;-15.11;52.81
74893;BME280;63446;56.272;43.922;2024-01-07T08:44:26;101244.00;;;-15.00;52.96
74893;BME280;63446;56.272;43.922;2024-01-07T08:46:52;101242.13;;;-14.96;52.80
74893;BME280;63446;56.272;43.922;2024-01-07T08:49:18;101242.94;;;-14.96;52.84
74893;BME280;63446;56.272;43.922;2024-01-07T08:51:44;101233.81;;;-14.98;52.82
74893;BME280;63446;56.272;43.922;2024-01-07T08:54:10;101250.25;;;-14.90;52.68
74893;BME280;63446;56.272;43.922;2024-01-07T08:56:37;101247.59;;;-14.88;52.81
74893;BME280;63446;56.272;43.922;2024-01-07T08:59:04;101248.34;;;-14.86;52.89
74893;BME280;63446;56.272;43.922;2024-01-07T09:01:31;101255.06;;;-14.85;52.85
74893;BME280;63446;56.272;43.922;2024-01-07T09:03:57;101255.81;;;-14.83;52.82
74893;BME280;63446;56.272;43.922;2024-01-07T09:06:22;101254.09;;;-14.83;52.71
74893;BME280;63446;56.272;43.922;2024-01-07T09:08:48;101245.56;;;-14.82;52.76
74893;BME280;63446;56.272;43.922;2024-01-07T09:11:14;101235.31;;;-14.80;52.82
74893;BME280;63446;56.272;43.922;2024-01-07T09:13:39;101234.44;;;-14.79;52.70
74893;BME280;63446;56.272;43.922;2024-01-07T09:16:05;101236.06;;;-14.78;52.71
74893;BME280;63446;56.272;43.922;2024-01-07T09:18:32;101236.06;;;-14.78;52.72
74893;BME280;63446;56.272;43.922;2024-01-07T09:20:58;101243.69;;;-14.78;52.78
74893;BME280;63446;56.272;43.922;2024-01-07T09:23:23;101232.22;;;-14.85;52.71
74893;BME280;63446;56.272;43.922;2024-01-07T09:25:51;101247.13;;;-14.79;52.59
74893;BME280;63446;56.272;43.922;2024-01-07T09:28:17;101244.59;;;-14.79;52.72
74893;BME280;63446;56.272;43.922;2024-01-07T09:30:43;101241.22;;;-14.80;52.58
74893;BME280;63446;56.272;43.922;2024-01-07T09:33:09;101245.31;;;-14.77;52.76
74893;BME280;63446;56.272;43.922;2024-01-07T09:35:34;101238.50;;;-14.77;52.62
74893;BME280;63446;56.272;43.922;2024-01-07T09:38:00;101249.41;;;-14.74;52.51
74893;BME280;63446;56.272;43.922;2024-01-07T09:40:26;101241.78;;;-14.74;52.66
74893;BME280;63446;56.272;43.922;2024-01-07T09:42:52;101254.38;;;-14.73;52.78
74893;BME280;63446;56.272;43.922;2024-01-07T09:45:19;101255.28;;;-14.74;52.54
74893;BME280;63446;56.272;43.922;2024-01-07T09:47:48;101256.84;;;-14.71;52.59
74893;BME280;63446;56.272;43.922;2024-01-07T09:50:14;101250.06;;;-14.71;52.76
74893;BME280;63446;56.272;43.922;2024-01-07T09:52:43;101250.88;;;-14.70;52.72
74893;BME280;63446;56.272;43.922;2024-01-07T09:55:22;101250.88;;;-14.70;52.58
74893;BME280;63446;56.272;43.922;2024-01-07T09:57:51;101243.41;;;-14.73;52.61
74893;BME280;63446;56.272;43.922;2024-01-07T10:00:17;101253.47;;;-14.72;52.60
74893;BME280;63446;56.272;43.922;2024-01-07T10:02:44;101245.88;;;-14.72;52.47
74893;BME280;63446;56.272;43.922;2024-01-07T10:05:10;101247.69;;;-14.74;52.46
74893;BME280;63446;56.272;43.922;2024-01-07T10:07:35;101240.97;;;-14.75;52.47
74893;BME280;63446;56.272;43.922;2024-01-07T10:10:17;101242.69;;;-14.75;52.52
74893;BME280;63446;56.272;43.922;2024-01-07T10:12:44;101248.59;;;-14.75;52.53
74893;BME280;63446;56.272;43.922;2024-01-07T10:15:14;101255.81;;;-14.83;52.46
74893;BME280;63446;56.272;43.922;2024-01-07T10:17:41;101272.50;;;-14.79;52.68
74893;BME280;63446;56.272;43.922;2024-01-07T10:20:08;101269.13;;;-14.80;52.63
74893;BME280;63446;56.272;43.922;2024-01-07T10:22:39;101256.53;;;-14.81;52.61
74893;BME280;63446;56.272;43.922;2024-01-07T10:25:06;101275.91;;;-14.80;52.61
74893;BME280;63446;56.272;43.922;2024-01-07T10:27:36;101279.19;;;-14.78;52.67
74893;BME280;63446;56.272;43.922;2024-01-07T10:30:05;101275.91;;;-14.80;52.61
74893;BME280;63446;56.272;43.922;2024-01-07T10:32:35;101285.09;;;-14.78;52.68
74893;BME280;63446;56.272;43.922;2024-01-07T10:35:03;101288.53;;;-14.79;52.75
74893;BME280;63446;56.272;43.922;2024-01-07T10:37:31;101311.38;;;-14.79;52.64
74893;BME280;63446;56.272;43.922;2024-01-07T10:39:58;101306.34;;;-14.80;52.66
74893;BME280;63446;56.272;43.922;2024-01-07T10:42:31;101311.44;;;-14.80;52.61
74893;BME280;63446;56.272;43.922;2024-01-07T10:44:59;101304.72;;;-14.81;52.52
74893;BME280;63446;56.272;43.922;2024-01-07T10:47:33;101311.53;;;-14.82;52.61
74893;BME280;63446;56.272;43.922;2024-01-07T10:50:01;101307.34;;;-14.83;52.54
74893;BME280;63446;56.272;43.922;2024-01-07T10:52:31;101309.97;;;-14.84;52.64
74893;BME280;63446;56.272;43.922;2024-01-07T10:55:06;101304.16;;;-14.86;52.52
74893;BME280;63446;56.272;43.922;2024-01-07T10:57:45;101313.56;;;-14.88;52.55
74893;BME280;63446;56.272;43.922;2024-01-07T11:00:13;101313.72;;;-14.91;52.64
74893;BME280;63446;56.272;43.922;2024-01-07T11:05:39;101311.53;;;-14.97;52.51
74893;BME280;63446;56.272;43.922;2024-01-07T11:08:37;101314.13;;;-14.99;52.52
74893;BME280;63446;56.272;43.922;2024-01-07T11:11:12;101326.19;;;-15.03;52.52
74893;BME280;63446;56.272;43.922;2024-01-07T11:13:39;101330.59;;;-15.06;52.59
74893;BME280;63446;56.272;43.922;2024-01-07T11:16:07;101322.53;;;-15.14;52.50
74893;BME280;63446;56.272;43.922;2024-01-07T11:18:46;101327.69;;;-15.16;52.49
74893;BME280;63446;56.272;43.922;2024-01-07T11:21:22;101330.38;;;-15.19;52.50
74893;BME280;63446;56.272;43.922;2024-01-07T11:23:52;101337.25;;;-15.21;52.42
74893;BME280;63446;56.272;43.922;2024-01-07T11:26:20;101338.31;;;-15.25;52.43
74893;BME280;63446;56.272;43.922;2024-01-07T11:28:56;101334.31;;;-15.29;52.51
74893;BME280;63446;56.272;43.922;2024-01-07T11:34:06;101354.06;;;-15.36;52.64
74893;BME280;63446;56.272;43.922;2024-01-07T11:36:37;101363.41;;;-15.36;52.63
74893;BME280;63446;56.272;43.922;2024-01-07T11:39:05;101371.25;;;-15.41;52.49
74893;BME280;63446;56.272;43.922;2024-01-07T11:41:35;101370.47;;;-15.43;52.47
74893;BME280;63446;56.272;43.922;2024-01-07T11:44:02;101372.34;;;-15.46;52.38
74893;BME280;63446;56.272;43.922;2024-01-07T11:46:31;101371.69;;;-15.50;52.46
74893;BME280;63446;56.272;43.922;2024-01-07T11:48:58;101384.44;;;-15.52;52.75
74893;BME280;63446;56.272;43.922;2024-01-07T11:51:28;101381.16;;;-15.54;52.60
74893;BME280;63446;56.272;43.922;2024-01-07T11:54:00;101396.50;;;-15.57;52.73
74893;BME280;63446;56.272;43.922;2024-01-07T11:56:27;101405.09;;;-15.59;52.69
74893;BME280;63446;56.272;43.922;2024-01-07T11:58:55;101393.38;;;-15.62;52.71
74893;BME280;63446;56.272;43.922;2024-01-07T12:01:22;101395.28;;;-15.65;52.58
74893;BME280;63446;56.272;43.922;2024-01-07T12:03:48;101409.75;;;-15.67;52.60
74893;BME280;63446;56.272;43.922;2024-01-07T12:06:15;101412.41;;;-15.70;52.76
74893;BME280;63446;56.272;43.922;2024-01-07T12:08:42;101409.94;;;-15.72;52.66
74893;BME280;63446;56.272;43.922;2024-01-07T12:11:14;101415.22;;;-15.77;52.60
74893;BME280;63446;56.272;43.922;2024-01-07T12:13:41;101419.47;;;-15.77;52.67
74893;BME280;63446;56.272;43.922;2024-01-07T12:16:08;101415.47;;;-15.81;52.61
74893;BME280;63446;56.272;43.922;2024-01-07T12:18:38;101418.94;;;-15.84;52.77
74893;BME280;63446;56.272;43.922;2024-01-07T12:21:04;101420.75;;;-15.86;52.62
74893;BME280;63446;56.272;43.922;2024-01-07T12:23:34;101416.63;;;-15.88;52.79
74893;BME280;63446;56.272;43.922;2024-01-07T12:26:10;101413.44;;;-15.92;52.68
74893;BME280;63446;56.272;43.922;2024-01-07T12:28:38;101404.28;;;-15.94;52.77
74893;BME280;63446;56.272;43.922;2024-01-07T12:31:04;101401.34;;;-16.04;52.76
74893;BME280;63446;56.272;43.922;2024-01-07T12:33:30;101407.91;;;-16.00;52.69
74893;BME280;63446;56.272;43.922;2024-01-07T12:35:57;101418.13;;;-16.02;52.72